Time;durP1;ratioP1;P1;durP2;ratioP2;P2;SDS_P1;SDS_P2;PMS_P1;PMS_P2;Temp;Humidity;BMP_temperature;BMP_pressure;BME280_temperature;BME280_humidity;BME280_pressure;Samples;Min_cycle;Max_cycle;Signal;HPM_P1;HPM_P2
2023/06/13 00:01:48;;;;;;;1.85;1.30;;;;;;;17.66;32.12;101222.13;5125456;28;20049;-60
2023/06/13 00:04:21;;;;;;;1.35;0.90;;;;;;;17.67;31.98;101235.22;5125352;28;20079;-61
2023/06/13 00:06:48;;;;;;;1.50;0.90;;;;;;;17.61;31.94;101229.25;5125227;28;20114;-61
2023/06/13 00:09:13;;;;;;;1.20;0.90;;;;;;;17.50;31.95;101227.75;5125282;28;20084;-59
2023/06/13 00:11:39;;;;;;;2.50;1.10;;;;;;;17.31;32.46;101232.59;5125330;28;20020;-60
2023/06/13 00:14:04;;;;;;;1.15;0.85;;;;;;;17.18;32.23;101239.88;5125441;28;20077;-60
2023/06/13 00:16:30;;;;;;;2.75;1.48;;;;;;;17.02;32.28;101234.94;5125418;28;20055;-61
2023/06/13 00:18:56;;;;;;;2.15;1.23;;;;;;;16.85;32.30;101224.84;5125353;28;20075;-61
2023/06/13 00:21:21;;;;;;;2.45;1.40;;;;;;;16.69;32.33;101229.53;5125112;28;20130;-60
2023/06/13 00:23:46;;;;;;;2.50;1.05;;;;;;;16.56;32.44;101227.19;5125254;28;20492;-59
2023/06/13 00:26:12;;;;;;;0.88;0.82;;;;;;;16.45;32.61;101231.78;5125070;28;20305;-59
2023/06/13 00:28:37;;;;;;;2.28;1.23;;;;;;;16.38;32.56;101230.16;5125054;28;20076;-60
2023/06/13 00:31:02;;;;;;;2.20;1.33;;;;;;;16.33;33.26;101233.75;5127391;28;20024;-60
2023/06/13 00:33:31;;;;;;;1.40;1.10;;;;;;;16.28;33.36;101238.19;5129178;28;20019;-60
2023/06/13 00:35:56;;;;;;;1.55;1.05;;;;;;;16.25;34.00;101242.63;5129056;28;20039;-59
2023/06/13 00:38:23;;;;;;;2.28;1.40;;;;;;;16.29;34.35;101237.31;5128854;28;20016;-59
2023/06/13 00:40:50;;;;;;;0.98;0.93;;;;;;;16.35;34.40;101231.09;5129150;28;20024;-60
2023/06/13 00:43:17;;;;;;;1.85;1.20;;;;;;;16.41;34.60;101233.59;5128800;28;20020;-60
2023/06/13 00:45:42;;;;;;;2.05;1.10;;;;;;;16.51;34.52;101239.50;5128675;28;20125;-59
2023/06/13 00:48:09;;;;;;;2.25;1.08;;;;;;;16.63;34.52;101245.41;5128686;28;20059;-60
2023/06/13 00:50:40;;;;;;;1.00;0.95;;;;;;;16.59;34.50;101234.13;5128616;28;20532;-61
2023/06/13 00:53:17;;;;;;;5.72;1.55;;;;;;;16.62;34.61;101251.53;5128959;28;20024;-59
2023/06/13 00:55:44;;;;;;;1.55;1.17;;;;;;;16.54;34.87;101244.69;5128902;28;20454;-60
2023/06/13 00:58:10;;;;;;;2.25;0.98;;;;;;;16.53;34.93;101244.72;5128527;28;20091;-60
2023/06/13 01:00:38;;;;;;;4.25;1.20;;;;;;;16.54;34.99;101247.31;5128442;28;20031;-60
2023/06/13 01:03:09;;;;;;;4.47;1.30;;;;;;;16.54;34.92;101247.31;5128524;28;20074;-60
2023/06/13 01:05:34;;;;;;;4.57;2.15;;;;;;;16.54;35.17;101251.69;5128715;28;20020;-60
2023/06/13 01:08:04;;;;;;;2.15;1.45;;;;;;;16.51;35.05;101254.38;5128343;28;20031;-61
2023/06/13 01:10:32;;;;;;;1.83;1.02;;;;;;;16.48;35.11;101248.28;5128155;28;20040;-61
2023/06/13 01:13:04;;;;;;;3.72;1.67;;;;;;;16.48;35.08;101252.69;5128641;28;20032;-61
2023/06/13 01:15:34;;;;;;;2.08;1.35;;;;;;;16.44;35.20;101253.63;5128393;28;20034;-60
2023/06/13 01:18:03;;;;;;;4.35;1.70;;;;;;;16.33;35.19;101257.31;5128377;28;20027;-60
2023/06/13 01:20:33;;;;;;;2.67;1.38;;;;;;;16.19;35.73;101256.72;5128238;28;20051;-61
2023/06/13 01:23:25;;;;;;;1.58;1.00;;;;;;;16.06;35.93;101251.69;5128044;28;20146;-59
2023/06/13 01:26:27;;;;;;;1.40;1.30;;;;;;;16.03;35.99;101250.88;5128409;28;20019;-61
2023/06/13 01:28:55;;;;;;;2.40;1.20;;;;;;;16.03;36.22;101241.28;5128147;28;20092;-61
2023/06/13 01:31:23;;;;;;;3.90;1.65;;;;;;;16.03;36.63;101259.63;5128291;28;20087;-60
2023/06/13 01:33:50;;;;;;;2.75;1.50;;;;;;;16.01;37.22;101248.28;5127984;28;20027;-61
2023/06/13 01:36:16;;;;;;;2.15;1.23;;;;;;;16.00;37.18;101251.81;5127940;28;20045;-61
2023/06/13 01:38:42;;;;;;;1.52;1.23;;;;;;;15.94;37.75;101251.88;5127903;28;20019;-61
2023/06/13 01:41:08;;;;;;;6.95;1.80;;;;;;;15.77;37.37;101254.81;5127413;28;20029;-61
2023/06/13 01:43:33;;;;;;;2.97;1.40;;;;;;;15.57;37.15;101250.75;5126993;28;20032;-61
2023/06/13 01:46:29;;;;;;;3.25;1.60;;;;;;;15.43;37.24;101251.81;5128107;28;20106;-60
2023/06/13 01:49:05;;;;;;;2.35;1.50;;;;;;;15.33;39.46;101256.34;5125884;28;20038;-60
2023/06/13 01:51:58;;;;;;;1.42;1.20;;;;;;;15.15;39.25;101253.97;5127617;28;20064;-60
2023/06/13 01:54:25;;;;;;;2.58;1.45;;;;;;;15.07;40.20;101254.94;5124185;28;20042;-60
2023/06/13 01:57:01;;;;;;;4.28;1.13;;;;;;;15.02;41.65;101254.13;5127528;28;20526;-60
2023/06/13 01:59:28;;;;;;;2.53;1.73;;;;;;;15.00;42.61;101253.28;5127553;28;20020;-60
2023/06/13 02:01:56;;;;;;;2.80;1.75;;;;;;;14.90;42.29;101252.56;5127584;28;20019;-60
2023/06/13 02:04:22;;;;;;;3.38;2.13;;;;;;;14.82;41.92;101257.91;5109236;28;20024;-61
2023/06/13 02:06:47;;;;;;;2.17;1.75;;;;;;;14.77;42.19;101258.78;5127037;28;20115;-60
2023/06/13 02:09:13;;;;;;;3.58;1.50;;;;;;;14.65;42.55;101257.19;5108918;28;20053;-60
2023/06/13 02:11:39;;;;;;;5.07;1.70;;;;;;;14.56;42.91;101260.75;5127710;28;20023;-60
2023/06/13 02:14:06;;;;;;;2.65;1.80;;;;;;;14.47;43.33;101259.13;5127103;28;20072;-61
2023/06/13 02:16:31;;;;;;;1.83;1.13;;;;;;;14.41;43.91;101254.81;5127318;28;20051;-60
2023/06/13 02:19:00;;;;;;;3.25;2.03;;;;;;;14.38;44.52;101253.13;5127128;28;20019;-59
2023/06/13 02:21:27;;;;;;;2.85;1.83;;;;;;;14.37;45.49;101256.63;5126712;28;20384;-60
2023/06/13 02:23:52;;;;;;;2.70;1.70;;;;;;;14.29;46.05;101260.19;5127176;28;20051;-60
2023/06/13 02:26:19;;;;;;;4.38;1.60;;;;;;;14.19;46.06;101262.00;5127080;28;20046;-61
2023/06/13 02:28:45;;;;;;;6.93;1.77;;;;;;;14.12;45.98;101254.25;5126715;28;20510;-59
2023/06/13 02:31:11;;;;;;;6.90;1.60;;;;;;;14.10;46.56;101261.25;5127105;28;20079;-60
2023/06/13 02:33:38;;;;;;;1.85;1.10;;;;;;;14.13;47.12;101265.56;5126866;28;20074;-60
2023/06/13 02:36:04;;;;;;;1.98;1.35;;;;;;;14.09;46.88;101251.66;5126857;28;20050;-59
2023/06/13 02:38:30;;;;;;;3.15;1.83;;;;;;;14.15;47.02;101257.72;5126844;28;20094;-61
2023/06/13 02:40:55;;;;;;;2.47;1.33;;;;;;;14.24;46.91;101258.50;5126750;28;20123;-60
2023/06/13 02:43:21;;;;;;;3.83;1.40;;;;;;;14.30;47.82;101251.47;5126706;28;20023;-61
2023/06/13 02:45:47;;;;;;;3.00;1.40;;;;;;;14.43;48.45;101262.66;5126980;28;20031;-60
2023/06/13 02:48:12;;;;;;;7.20;1.98;;;;;;;14.52;49.45;101254.69;5126450;28;20548;-60
2023/06/13 02:50:37;;;;;;;6.07;1.88;;;;;;;14.59;50.04;101252.88;5126507;28;20022;-60
2023/06/13 02:53:03;;;;;;;2.40;1.70;;;;;;;14.74;49.98;101252.69;5107572;28;20027;-61
2023/06/13 02:55:29;;;;;;;1.80;1.35;;;;;;;14.84;50.48;101257.88;5126054;28;20057;-60
2023/06/13 02:57:55;;;;;;;2.42;1.35;;;;;;;14.96;49.85;101256.84;5126611;28;20027;-61
2023/06/13 03:00:21;;;;;;;6.97;1.35;;;;;;;15.04;50.09;101254.13;5126394;28;20043;-60
2023/06/13 03:02:47;;;;;;;4.25;1.60;;;;;;;15.15;50.49;101269.66;5108239;28;20056;-60
2023/06/13 03:05:16;;;;;;;1.85;1.23;;;;;;;15.21;51.10;101252.13;5126374;28;20020;-61
2023/06/13 03:07:46;;;;;;;3.22;1.60;;;;;;;15.43;51.81;101264.88;5125927;28;20034;-61
2023/06/13 03:10:12;;;;;;;1.60;0.98;;;;;;;15.70;52.72;101260.09;5126222;28;20032;-60
2023/06/13 03:12:39;;;;;;;1.30;1.17;;;;;;;16.10;53.00;101261.22;5126303;28;20020;-60
2023/06/13 03:15:05;;;;;;;3.10;1.25;;;;;;;16.50;53.88;101253.53;5126156;28;20076;-59
2023/06/13 03:17:30;;;;;;;5.63;1.60;;;;;;;17.01;52.85;101262.09;5126072;28;20024;-60
2023/06/13 03:19:56;;;;;;;1.50;1.10;;;;;;;17.56;51.87;101264.38;5125904;28;20024;-61
2023/06/13 03:22:21;;;;;;;2.00;1.50;;;;;;;18.19;51.07;101258.47;5125942;28;20057;-60
2023/06/13 03:24:46;;;;;;;3.92;1.17;;;;;;;18.77;50.02;101241.06;5126135;28;20023;-61
2023/06/13 03:27:12;;;;;;;1.35;0.98;;;;;;;19.36;49.34;101248.09;5125933;28;20025;-60
2023/06/13 03:29:40;;;;;;;4.40;1.48;;;;;;;19.84;48.63;101248.31;5126262;28;20030;-60
2023/06/13 03:32:06;;;;;;;1.27;1.08;;;;;;;20.29;47.85;101236.22;5126096;28;20024;-61
2023/06/13 03:34:37;;;;;;;1.88;1.30;;;;;;;20.81;47.22;101248.41;5107468;28;20028;-61
2023/06/13 03:37:07;;;;;;;7.15;0.98;;;;;;;21.28;46.73;101243.97;5125688;28;20034;-60
2023/06/13 03:39:32;;;;;;;1.05;0.95;;;;;;;21.64;46.16;101251.31;5107591;28;20022;-61
2023/06/13 03:41:58;;;;;;;1.95;0.90;;;;;;;22.09;45.30;101245.94;5125799;28;20102;-61
2023/06/13 03:44:25;;;;;;;1.55;1.17;;;;;;;22.32;44.95;101240.56;5125734;28;20024;-61
2023/06/13 03:46:51;;;;;;;1.13;1.00;;;;;;;22.64;44.08;101244.41;5125848;28;20024;-60
2023/06/13 03:49:18;;;;;;;1.15;0.88;;;;;;;22.80;43.13;101245.47;5125410;28;20066;-60
2023/06/13 03:51:44;;;;;;;1.25;1.02;;;;;;;22.95;42.83;101242.09;5125494;28;20028;-61
2023/06/13 03:54:09;;;;;;;2.88;1.00;;;;;;;23.15;42.71;101241.16;5125696;28;20104;-60
2023/06/13 03:56:35;;;;;;;1.88;0.90;;;;;;;23.43;42.39;101243.41;5125376;28;20028;-61
2023/06/13 03:59:01;;;;;;;1.10;0.82;;;;;;;23.62;41.79;101248.63;5125636;28;20039;-60
2023/06/13 04:01:26;;;;;;;1.27;1.00;;;;;;;23.86;41.68;101245.66;5125511;28;20216;-61
2023/06/13 04:03:52;;;;;;;1.40;0.80;;;;;;;24.05;40.91;101247.34;5125537;28;20031;-60
2023/06/13 04:06:17;;;;;;;1.95;0.80;;;;;;;24.09;40.52;101241.81;5128375;28;20082;-60
2023/06/13 04:08:42;;;;;;;1.08;0.80;;;;;;;24.28;39.99;101242.69;5129497;28;20122;-61
2023/06/13 04:11:08;;;;;;;1.83;1.35;;;;;;;24.65;39.74;101245.13;5129784;28;20030;-60
2023/06/13 04:13:33;;;;;;;1.20;1.00;;;;;;;24.98;38.99;101244.22;5129628;28;20020;-60
2023/06/13 04:15:59;;;;;;;1.27;1.17;;;;;;;25.20;38.59;101248.31;5129756;28;20030;-60
2023/06/13 04:18:24;;;;;;;4.20;0.80;;;;;;;25.46;38.23;101246.78;5129393;28;20097;-61
2023/06/13 04:20:53;;;;;;;2.53;0.88;;;;;;;25.73;37.82;101248.81;5129121;28;20044;-61
2023/06/13 04:23:19;;;;;;;1.15;0.80;;;;;;;26.11;36.91;101243.91;5129694;28;20096;-60
2023/06/13 04:25:44;;;;;;;1.23;1.13;;;;;;;26.24;36.62;101242.22;5129522;28;20031;-61
2023/06/13 04:28:13;;;;;;;0.88;0.70;;;;;;;26.42;36.05;101241.19;5129623;28;20032;-60
2023/06/13 04:30:40;;;;;;;0.65;0.55;;;;;;;26.75;35.93;101245.31;5129402;28;20034;-61
2023/06/13 04:33:13;;;;;;;0.30;0.30;;;;;;;27.03;35.33;101237.41;5129092;28;20019;-60
2023/06/13 04:35:44;;;;;;;2.63;0.85;;;;;;;27.40;34.75;101239.41;5129329;28;20024;-60
2023/06/13 04:38:14;;;;;;;1.02;0.88;;;;;;;27.47;33.88;101238.91;5129062;28;20163;-61
2023/06/13 04:40:40;;;;;;;1.70;0.90;;;;;;;27.66;34.51;101247.47;5109836;28;20065;-62
2023/06/13 04:43:05;;;;;;;1.88;1.08;;;;;;;28.08;33.89;101240.13;5129057;28;20026;-61
2023/06/13 04:45:35;;;;;;;2.85;1.23;;;;;;;28.51;33.32;101243.44;5129020;28;20031;-61
2023/06/13 04:48:03;;;;;;;1.08;0.77;;;;;;;28.91;33.51;101237.00;5128749;28;20035;-60
2023/06/13 04:50:31;;;;;;;0.95;0.70;;;;;;;29.11;32.76;101247.22;5129087;28;20039;-61
2023/06/13 04:52:57;;;;;;;0.82;0.60;;;;;;;29.28;32.16;101243.28;5128717;28;20080;-61
2023/06/13 04:55:25;;;;;;;1.17;0.80;;;;;;;29.41;32.53;101241.38;5128863;28;20023;-60
2023/06/13 04:57:51;;;;;;;1.30;0.55;;;;;;;29.92;31.92;101238.50;5129007;28;20099;-60
2023/06/13 05:00:18;;;;;;;2.70;0.82;;;;;;;30.03;31.13;101248.34;5128904;28;20463;-61
2023/06/13 05:02:45;;;;;;;0.88;0.75;;;;;;;30.24;31.22;101240.44;5128739;28;20028;-60
2023/06/13 05:05:11;;;;;;;0.68;0.52;;;;;;;30.27;30.80;101242.88;5128691;28;20083;-60
2023/06/13 05:07:39;;;;;;;2.25;0.50;;;;;;;30.18;30.53;101235.56;5128440;28;20016;-60
2023/06/13 05:10:05;;;;;;;3.95;0.93;;;;;;;30.38;30.44;101242.06;5128838;28;20047;-60
2023/06/13 05:12:30;;;;;;;1.58;0.70;;;;;;;30.34;30.00;101245.94;5128771;28;20076;-60
2023/06/13 05:14:55;;;;;;;1.08;0.57;;;;;;;30.30;30.20;101239.13;5128558;28;20019;-60
2023/06/13 05:17:21;;;;;;;0.57;0.52;;;;;;;30.18;30.53;101243.59;5128360;28;20107;-59
2023/06/13 05:19:47;;;;;;;0.60;0.50;;;;;;;30.03;30.67;101249.19;5127585;28;20024;-59
2023/06/13 05:22:13;;;;;;;2.53;0.90;;;;;;;29.75;30.63;101246.00;5128258;28;20030;-60
2023/06/13 05:24:38;;;;;;;0.80;0.50;;;;;;;29.63;31.01;101247.81;5128551;28;20091;-60
2023/06/13 05:27:04;;;;;;;1.73;0.85;;;;;;;29.75;30.95;101247.81;5128132;28;20053;-60
2023/06/13 05:29:30;;;;;;;3.95;1.25;;;;;;;29.78;30.10;101242.22;5110198;28;20019;-60
2023/06/13 05:31:57;;;;;;;2.13;1.20;;;;;;;29.82;30.48;101235.66;5128395;28;20016;-59
2023/06/13 05:34:23;;;;;;;1.02;0.70;;;;;;;30.05;30.06;101243.69;5128020;28;20050;-60
2023/06/13 05:36:48;;;;;;;2.58;0.88;;;;;;;30.34;29.93;101243.25;5127890;28;20020;-61
2023/06/13 05:39:14;;;;;;;1.00;0.70;;;;;;;30.96;29.57;101250.00;5127960;28;20051;-61
2023/06/13 05:41:40;;;;;;;0.68;0.63;;;;;;;31.26;28.75;101248.41;5128076;28;20027;-61
2023/06/13 05:44:06;;;;;;;0.85;0.65;;;;;;;31.52;28.99;101234.63;5127995;28;20046;-61
2023/06/13 05:46:31;;;;;;;1.67;0.80;;;;;;;32.22;28.46;101246.63;5128014;28;20032;-61
2023/06/13 05:48:57;;;;;;;0.68;0.63;;;;;;;32.69;27.98;101240.69;5127580;28;20103;-61
2023/06/13 05:51:23;;;;;;;1.35;0.63;;;;;;;33.09;26.83;101240.75;5127760;28;20047;-60
2023/06/13 05:53:48;;;;;;;1.02;0.70;;;;;;;32.88;26.55;101239.88;5127957;28;20062;-61
2023/06/13 05:56:14;;;;;;;0.93;0.70;;;;;;;32.88;25.68;101241.69;5127646;28;20051;-60
2023/06/13 05:58:39;;;;;;;0.85;0.65;;;;;;;32.83;25.03;101247.50;5127869;28;20011;-60
2023/06/13 06:01:04;;;;;;;0.68;0.47;;;;;;;32.75;24.85;101250.06;5127531;28;20107;-61
2023/06/13 06:03:31;;;;;;;1.40;0.80;;;;;;;32.48;23.50;101243.44;5127345;28;20027;-60
2023/06/13 06:05:57;;;;;;;1.38;0.85;;;;;;;32.22;23.00;101252.00;5127646;28;20106;-60
2023/06/13 06:08:23;;;;;;;0.93;0.82;;;;;;;32.05;23.24;101251.63;5127281;28;20387;-61
2023/06/13 06:10:48;;;;;;;0.95;0.45;;;;;;;31.75;23.25;101251.47;5127587;28;20043;-61
2023/06/13 06:13:14;;;;;;;0.75;0.50;;;;;;;31.86;23.19;101255.91;5127282;28;20104;-60
2023/06/13 06:15:40;;;;;;;0.38;0.38;;;;;;;31.77;23.19;101254.03;5127453;28;20412;-60
2023/06/13 06:18:06;;;;;;;2.17;0.85;;;;;;;31.91;23.07;101250.13;5127148;28;20058;-60
2023/06/13 06:20:31;;;;;;;0.73;0.68;;;;;;;31.84;23.14;101240.94;5108169;28;20044;-60
2023/06/13 06:22:57;;;;;;;2.92;0.90;;;;;;;32.39;23.16;101245.13;5126957;28;20027;-59
2023/06/13 06:25:22;;;;;;;2.17;0.73;;;;;;;32.40;23.50;101255.75;5126986;28;20019;-60
2023/06/13 06:27:49;;;;;;;1.88;0.73;;;;;;;32.71;23.06;101256.69;5126311;28;20042;-61
2023/06/13 06:30:15;;;;;;;0.68;0.40;;;;;;;32.78;22.62;101252.47;5126860;28;20045;-61
2023/06/13 06:32:42;;;;;;;1.20;0.80;;;;;;;32.47;22.62;101256.03;5127055;28;20024;-62
2023/06/13 06:35:08;;;;;;;3.22;1.38;;;;;;;32.45;22.48;101246.41;5127054;28;20027;-61
2023/06/13 06:37:33;;;;;;;0.60;0.30;;;;;;;32.92;22.40;101253.03;5126687;28;20064;-60
2023/06/13 06:40:00;;;;;;;3.92;0.43;;;;;;;32.92;21.24;101244.97;5126858;28;20107;-60
2023/06/13 06:42:25;;;;;;;0.85;0.65;;;;;;;32.68;21.99;101251.59;5126936;28;20027;-60
2023/06/13 06:44:51;;;;;;;0.65;0.52;;;;;;;32.61;21.63;101249.47;5126701;28;20027;-60
2023/06/13 06:47:17;;;;;;;0.57;0.57;;;;;;;32.30;21.42;101259.38;5126613;28;20024;-59
2023/06/13 06:49:42;;;;;;;2.45;0.68;;;;;;;32.32;20.88;101252.88;5126602;28;20027;-60
2023/06/13 06:52:08;;;;;;;0.40;0.40;;;;;;;31.88;20.71;101253.94;5126395;28;20106;-61
2023/06/13 06:54:34;;;;;;;6.75;0.88;;;;;;;31.44;20.51;101253.25;5126709;28;20034;-60
2023/06/13 06:57:01;;;;;;;0.63;0.60;;;;;;;31.46;20.42;101248.56;5126575;28;20023;-60
2023/06/13 06:59:27;;;;;;;0.73;0.40;;;;;;;31.33;20.27;101249.59;5126598;28;20094;-60
2023/06/13 07:01:52;;;;;;;0.63;0.47;;;;;;;31.23;20.12;101246.81;5126444;28;20038;-60
2023/06/13 07:04:18;;;;;;;1.25;0.60;;;;;;;31.22;20.47;101253.19;5126524;28;20350;-59
2023/06/13 07:06:43;;;;;;;1.95;0.95;;;;;;;31.48;20.10;101255.53;5126208;28;20049;-59
2023/06/13 07:09:10;;;;;;;4.78;0.95;;;;;;;31.44;19.97;101250.56;5126263;28;20028;-59
2023/06/13 07:11:35;;;;;;;1.33;0.68;;;;;;;31.63;20.27;101249.84;5126425;28;20019;-60
2023/06/13 07:14:01;;;;;;;0.75;0.38;;;;;;;31.98;20.53;101255.84;5126398;28;20048;-60
2023/06/13 07:16:26;;;;;;;0.60;0.50;;;;;;;32.17;20.27;101248.88;5126144;28;20022;-60
2023/06/13 07:18:52;;;;;;;2.70;0.75;;;;;;;32.40;20.18;101242.31;5126173;28;20404;-59
2023/06/13 07:21:17;;;;;;;1.08;0.80;;;;;;;32.63;20.27;101243.94;5125718;28;20046;-60
2023/06/13 07:23:42;;;;;;;1.27;0.70;;;;;;;32.96;20.13;101244.53;5126124;28;20058;-60
2023/06/13 07:26:08;;;;;;;1.60;0.77;;;;;;;33.15;19.96;101242.88;5126080;28;20062;-59
2023/06/13 07:28:33;;;;;;;0.85;0.50;;;;;;;32.90;19.05;101242.41;5107623;28;20446;-59
2023/06/13 07:30:59;;;;;;;4.38;1.27;;;;;;;32.46;18.95;101243.56;5125929;28;20035;-60
2023/06/13 07:33:25;;;;;;;0.95;0.77;;;;;;;31.99;19.22;101242.28;5125988;28;20460;-59
2023/06/13 07:35:52;;;;;;;1.88;0.82;;;;;;;31.83;19.58;101237.38;5126053;28;20019;-60
2023/06/13 07:38:19;;;;;;;0.50;0.50;;;;;;;31.89;19.74;101244.91;5125938;28;20041;-59
2023/06/13 07:40:45;;;;;;;0.55;0.43;;;;;;;32.13;19.62;101234.84;5125334;28;20023;-59
2023/06/13 07:43:10;;;;;;;1.52;0.70;;;;;;;32.19;19.30;101241.53;5126134;28;20385;-60
2023/06/13 07:45:36;;;;;;;1.25;0.70;;;;;;;32.27;19.43;101245.22;5125950;28;20020;-59
2023/06/13 07:48:01;;;;;;;0.57;0.47;;;;;;;32.39;19.38;101234.38;5125843;28;20023;-58
2023/06/13 07:50:28;;;;;;;1.23;0.80;;;;;;;32.49;18.82;101239.78;5125971;28;20023;-59
2023/06/13 07:52:53;;;;;;;0.57;0.52;;;;;;;32.61;19.16;101236.03;5107415;28;20023;-60
2023/06/13 07:55:19;;;;;;;6.63;1.05;;;;;;;32.70;18.74;101237.00;5126130;28;20031;-59
2023/06/13 07:57:45;;;;;;;5.43;0.60;;;;;;;32.88;19.22;101231.81;5125842;28;20018;-60
2023/06/13 08:00:17;;;;;;;0.57;0.57;;;;;;;33.18;18.72;101236.38;5125929;28;20031;-60
2023/06/13 08:02:46;;;;;;;1.63;0.63;;;;;;;33.31;18.43;101236.91;5125969;28;20053;-59
2023/06/13 08:05:13;;;;;;;0.70;0.47;;;;;;;33.44;18.70;101246.53;5125660;28;20028;-59
2023/06/13 08:07:39;;;;;;;1.33;0.88;;;;;;;33.44;18.33;101241.16;5125551;28;20048;-60
2023/06/13 08:10:05;;;;;;;0.90;0.75;;;;;;;33.62;18.70;101249.38;5125613;28;20031;-60
2023/06/13 08:12:31;;;;;;;0.95;0.65;;;;;;;33.58;18.62;101251.47;5125722;28;20026;-59
2023/06/13 08:14:56;;;;;;;1.27;1.05;;;;;;;33.65;18.56;101248.22;5125596;28;20023;-60
2023/06/13 08:17:24;;;;;;;0.80;0.70;;;;;;;33.84;18.16;101242.78;5125645;28;20028;-60
2023/06/13 08:19:50;;;;;;;3.17;0.95;;;;;;;33.85;17.98;101249.88;5125476;28;20038;-59
2023/06/13 08:22:17;;;;;;;1.08;0.47;;;;;;;33.86;17.33;101245.34;5125519;28;20016;-60
2023/06/13 08:24:42;;;;;;;1.33;0.60;;;;;;;33.93;17.92;101245.59;5125742;28;20023;-59
2023/06/13 08:27:07;;;;;;;1.45;0.70;;;;;;;34.19;17.49;101243.09;5125539;28;20035;-60
2023/06/13 08:29:33;;;;;;;0.52;0.47;;;;;;;34.16;17.35;101238.03;5125433;28;20024;-59
2023/06/13 08:31:59;;;;;;;1.55;1.05;;;;;;;34.22;17.22;101239.28;5125655;28;20081;-59
2023/06/13 08:34:26;;;;;;;0.90;0.70;;;;;;;34.17;17.44;101242.41;5125436;28;20073;-60
2023/06/13 08:36:51;;;;;;;0.40;0.40;;;;;;;33.97;17.86;101250.53;5125270;28;20051;-60
2023/06/13 08:39:17;;;;;;;0.70;0.65;;;;;;;33.79;17.88;101242.38;5125619;28;20015;-60
2023/06/13 08:41:44;;;;;;;1.15;0.90;;;;;;;33.98;18.23;101238.78;5125708;28;20043;-58
2023/06/13 08:44:09;;;;;;;0.90;0.70;;;;;;;34.21;18.08;101237.56;5125556;28;20019;-59
2023/06/13 08:46:36;;;;;;;2.10;0.98;;;;;;;34.30;18.13;101231.28;5125550;28;20028;-59
2023/06/13 08:49:02;;;;;;;11.27;0.80;;;;;;;34.60;17.83;101242.72;5125365;28;20038;-59
2023/06/13 08:51:30;;;;;;;1.45;0.77;;;;;;;34.22;17.62;101247.38;5126420;28;20023;-59
2023/06/13 08:53:59;;;;;;;1.73;0.88;;;;;;;33.99;18.19;101245.00;5129439;28;20024;-60
2023/06/13 08:56:28;;;;;;;0.90;0.60;;;;;;;33.86;18.48;101240.81;5129170;28;20031;-58
2023/06/13 08:59:22;;;;;;;0.80;0.75;;;;;;;33.84;18.54;101234.72;5129198;28;20016;-59
2023/06/13 09:01:49;;;;;;;1.65;0.82;;;;;;;33.72;18.89;101228.69;5129066;28;20026;-59
2023/06/13 09:04:16;;;;;;;0.85;0.57;;;;;;;33.57;19.15;101230.94;5128977;28;20024;-58
2023/06/13 09:06:43;;;;;;;1.63;0.65;;;;;;;33.81;19.16;101232.31;5128808;28;20030;-59
2023/06/13 09:09:10;;;;;;;1.55;0.68;;;;;;;34.10;18.96;101235.88;5129025;28;20020;-59
2023/06/13 09:11:37;;;;;;;1.00;0.65;;;;;;;34.60;19.23;101221.16;5128817;28;20132;-59
2023/06/13 09:14:06;;;;;;;1.95;0.95;;;;;;;34.66;18.55;101230.50;5128985;28;20057;-59
2023/06/13 09:16:32;;;;;;;2.97;0.77;;;;;;;34.56;18.78;101227.88;5128843;28;20027;-58
2023/06/13 09:18:59;;;;;;;1.45;0.80;;;;;;;34.82;18.91;101216.38;5128735;28;20030;-58
2023/06/13 09:21:26;;;;;;;8.32;0.85;;;;;;;35.10;18.59;101223.50;5128254;28;20065;-59
2023/06/13 09:23:58;;;;;;;0.47;0.40;;;;;;;35.34;18.39;101228.28;5128804;28;20049;-59
2023/06/13 09:26:24;;;;;;;1.83;0.70;;;;;;;35.37;17.88;101226.28;5128630;28;20368;-59
2023/06/13 09:28:51;;;;;;;1.75;0.70;;;;;;;34.79;17.93;101221.22;5128681;28;20024;-58
2023/06/13 09:31:16;;;;;;;1.45;0.95;;;;;;;34.25;18.70;101223.66;5128507;28;20156;-59
2023/06/13 09:33:44;;;;;;;0.80;0.60;;;;;;;34.31;18.63;101207.88;5128498;28;20444;-58
2023/06/13 09:36:10;;;;;;;1.08;0.63;;;;;;;34.21;19.08;101210.63;5128496;28;20143;-59
2023/06/13 09:38:40;;;;;;;2.83;0.82;;;;;;;34.45;18.85;101210.06;5128079;28;20031;-58
2023/06/13 09:41:13;;;;;;;0.50;0.50;;;;;;;34.67;18.71;101204.38;5128402;28;20023;-58
2023/06/13 09:43:39;;;;;;;2.53;0.77;;;;;;;34.55;19.11;101210.00;5128343;28;20444;-60
2023/06/13 09:46:04;;;;;;;3.10;1.40;;;;;;;34.78;18.98;101206.06;5128178;28;20101;-58
2023/06/13 09:48:30;;;;;;;1.58;1.08;;;;;;;34.94;18.94;101206.19;5128076;28;20024;-59
2023/06/13 09:50:55;;;;;;;1.05;0.60;;;;;;;35.05;18.79;101207.78;5128035;28;20019;-59
2023/06/13 09:53:21;;;;;;;1.83;1.00;;;;;;;35.04;18.96;101203.41;5127922;28;20019;-60
2023/06/13 09:55:48;;;;;;;2.00;0.85;;;;;;;35.24;18.88;101205.97;5127848;28;20079;-60
2023/06/13 09:58:15;;;;;;;1.23;0.80;;;;;;;35.26;18.88;101206.63;5128106;28;20011;-63
2023/06/13 10:00:41;;;;;;;1.00;0.70;;;;;;;35.22;18.76;101198.03;5127911;28;20104;-59
2023/06/13 10:03:07;;;;;;;0.43;0.32;;;;;;;34.84;19.43;101198.16;5126671;28;20039;-59
2023/06/13 10:05:32;;;;;;;1.98;0.80;;;;;;;34.79;19.41;101197.81;5127851;28;20049;-60
2023/06/13 10:07:58;;;;;;;0.38;0.38;;;;;;;34.54;19.61;101194.81;5127105;28;20046;-60
2023/06/13 10:10:23;;;;;;;1.02;0.68;;;;;;;34.47;19.57;101193.75;5127651;28;20107;-59
2023/06/13 10:12:56;;;;;;;1.02;0.70;;;;;;;34.47;19.87;101189.22;5127689;28;20046;-59
2023/06/13 10:15:39;;;;;;;0.85;0.70;;;;;;;34.63;19.86;101195.75;5127638;28;20031;-58
2023/06/13 10:18:13;;;;;;;0.95;0.82;;;;;;;34.83;19.92;101183.00;5127731;28;20084;-58
2023/06/13 10:20:40;;;;;;;0.73;0.63;;;;;;;34.91;19.73;101190.31;5127286;28;20052;-59
2023/06/13 10:23:10;;;;;;;0.70;0.50;;;;;;;34.34;18.89;101184.19;5127304;28;20026;-58
2023/06/13 10:25:37;;;;;;;0.60;0.50;;;;;;;33.84;19.54;101186.25;5127602;28;20020;-59
2023/06/13 10:28:13;;;;;;;0.85;0.82;;;;;;;33.84;19.66;101183.56;5127391;28;20027;-59
2023/06/13 10:31:13;;;;;;;2.13;0.82;;;;;;;33.38;19.60;101176.19;5127298;28;20030;-59
2023/06/13 10:33:45;;;;;;;1.80;1.10;;;;;;;33.22;19.80;101183.97;5127468;28;20023;-59
2023/06/13 10:36:21;;;;;;;1.30;0.93;;;;;;;33.17;19.66;101179.03;5127133;28;20379;-60
2023/06/13 10:39:16;;;;;;;1.55;0.88;;;;;;;33.01;19.67;101175.06;5126750;28;20051;-60
2023/06/13 10:42:03;;;;;;;2.10;0.90;;;;;;;32.73;20.24;101171.38;5108697;28;20028;-59
2023/06/13 10:44:32;;;;;;;2.90;0.70;;;;;;;32.67;20.39;101169.28;5126805;28;20019;-59
2023/06/13 10:46:57;;;;;;;0.40;0.40;;;;;;;32.82;20.16;101173.22;5126948;28;20054;-59
2023/06/13 10:49:35;;;;;;;1.90;0.95;;;;;;;32.79;20.37;101175.34;5126906;28;20032;-59
2023/06/13 10:52:02;;;;;;;2.85;1.00;;;;;;;32.67;20.39;101170.09;5126699;28;20027;-57
2023/06/13 10:54:28;;;;;;;1.65;1.00;;;;;;;32.42;20.57;101164.25;5127009;28;20027;-59
2023/06/13 10:57:00;;;;;;;2.80;1.02;;;;;;;31.82;20.76;101154.31;5126694;28;20020;-59
2023/06/13 10:59:33;;;;;;;1.38;0.93;;;;;;;31.02;20.97;101159.16;5126816;28;20095;-59
2023/06/13 11:01:59;;;;;;;1.17;0.70;;;;;;;30.12;22.25;101153.91;5126701;28;20030;-59
2023/06/13 11:04:28;;;;;;;1.70;0.73;;;;;;;29.33;22.88;101158.19;5126571;28;20027;-58
2023/06/13 11:07:22;;;;;;;2.22;1.10;;;;;;;28.59;23.16;101157.41;5126364;28;20081;-60
2023/06/13 11:10:12;;;;;;;1.05;0.63;;;;;;;28.00;24.39;101153.59;5126413;28;20125;-58
2023/06/13 11:12:38;;;;;;;1.60;0.82;;;;;;;27.77;24.54;101151.59;5126493;28;20027;-58
2023/06/13 11:15:05;;;;;;;1.00;0.70;;;;;;;27.55;24.93;101146.88;5107618;28;20157;-60
2023/06/13 11:17:31;;;;;;;1.23;0.70;;;;;;;27.23;24.87;101148.13;5126543;28;20073;-59
2023/06/13 11:19:56;;;;;;;1.60;1.13;;;;;;;27.04;25.02;101149.38;5126075;28;20058;-59
2023/06/13 11:22:23;;;;;;;1.83;0.95;;;;;;;26.81;25.31;101145.50;5126146;28;20055;-59
2023/06/13 11:24:49;;;;;;;1.20;1.00;;;;;;;26.61;25.48;101150.34;5126385;28;20023;-60
2023/06/13 11:27:16;;;;;;;1.40;0.95;;;;;;;26.29;25.94;101147.94;5126114;28;20050;-60